createdAt,value
2022-11-09T00:01:38.311Z,93513.42
2022-11-09T00:06:47.417Z,93511.81
2022-11-09T00:11:57.011Z,93503.27
2022-11-09T00:17:04.215Z,93500.88
2022-11-09T00:22:12.554Z,93508.01
2022-11-09T00:27:20.916Z,93503.14
2022-11-09T00:32:28.112Z,93497.87
2022-11-09T00:37:35.294Z,93490.59
2022-11-09T00:42:42.193Z,93493.73
2022-11-09T00:47:48.861Z,93487.17
2022-11-09T00:52:55.755Z,93482.52
2022-11-09T00:58:02.581Z,93493.33
2022-11-09T01:03:09.508Z,93486.88
2022-11-09T01:08:16.586Z,93489.45
2022-11-09T01:13:23.851Z,93487.31
2022-11-09T01:18:30.732Z,93480.94
2022-11-09T01:23:38.724Z,93476.63
2022-11-09T01:28:46.130Z,93474.64
2022-11-09T01:33:53.015Z,93473.49
2022-11-09T01:39:00.020Z,93467.23
2022-11-09T01:44:11.423Z,93474.63
2022-11-09T01:49:41.475Z,93464.46
2022-11-09T01:54:58.116Z,93469.45
2022-11-09T02:00:11.627Z,93470.50
2022-11-09T02:05:21.401Z,93468.01
2022-11-09T02:10:35.061Z,93464.09
2022-11-09T02:15:45.629Z,93457.85
2022-11-09T02:20:54.253Z,93452.58
2022-11-09T02:26:05.729Z,93448.93
2022-11-09T02:31:16.025Z,93444.18
2022-11-09T02:36:26.363Z,93450.79
2022-11-09T02:41:35.076Z,93448.67
2022-11-09T02:46:42.180Z,93438.36
2022-11-09T02:51:49.484Z,93438.52
2022-11-09T02:56:56.200Z,93441.55
2022-11-09T03:02:03.215Z,93446.77
2022-11-09T03:07:13.039Z,93440.62
2022-11-09T03:12:21.453Z,93448.24
2022-11-09T03:17:29.178Z,93445.57
2022-11-09T03:22:37.728Z,93442.29
2022-11-09T03:27:45.968Z,93457.11
2022-11-09T03:32:52.934Z,93453.82
2022-11-09T03:37:59.857Z,93450.70
2022-11-09T03:43:07.097Z,93453.27
2022-11-09T03:48:14.445Z,93456.23
2022-11-09T03:53:23.556Z,93461.27
2022-11-09T03:58:32.103Z,93465.11
2022-11-09T04:03:39.214Z,93462.59
2022-11-09T04:08:51.598Z,93460.63
2022-11-09T04:13:57.704Z,93458.62
2022-11-09T04:19:04.773Z,93443.66
2022-11-09T04:24:13.139Z,93438.31
2022-11-09T04:29:19.890Z,93436.47
2022-11-09T04:34:26.963Z,93431.32
2022-11-09T04:39:34.298Z,93426.08
2022-11-09T04:44:42.524Z,93421.86
2022-11-09T04:49:49.624Z,93428.77
2022-11-09T04:54:56.266Z,93420.86
2022-11-09T05:00:03.117Z,93425.73
2022-11-09T05:05:10.367Z,93428.04
2022-11-09T05:10:18.151Z,93426.13
2022-11-09T05:15:27.592Z,93421.07
2022-11-09T05:20:35.169Z,93427.41
2022-11-09T05:25:44.826Z,93428.69
2022-11-09T05:30:50.575Z,93435.72
2022-11-09T05:35:58.262Z,93434.77
2022-11-09T05:41:05.171Z,93436.33
2022-11-09T05:46:12.066Z,93441.97
2022-11-09T05:51:18.895Z,93448.16
2022-11-09T05:56:25.601Z,93453.80
2022-11-09T06:01:32.515Z,93450.87
2022-11-09T06:06:39.227Z,93457.70
2022-11-09T06:11:46.819Z,93471.05
2022-11-09T06:16:53.613Z,93473.41
2022-11-09T06:22:00.932Z,93477.41
2022-11-09T06:27:08.110Z,93471.87
2022-11-09T06:32:16.752Z,93474.62
2022-11-09T06:37:23.386Z,93479.15
2022-11-09T06:42:30.137Z,93481.13
2022-11-09T06:47:36.830Z,93480.77
2022-11-09T06:52:43.526Z,93483.67
2022-11-09T06:57:50.195Z,93481.61
2022-11-09T07:02:57.156Z,93482.47
2022-11-09T07:08:03.873Z,93477.63
2022-11-09T07:13:12.216Z,93490.42
2022-11-09T07:18:18.900Z,93484.91
2022-11-09T07:23:26.051Z,93486.06
2022-11-09T07:28:33.496Z,93482.70
2022-11-09T07:33:40.206Z,93481.64
2022-11-09T07:38:48.600Z,93475.77
2022-11-09T07:43:55.236Z,93473.58
2022-11-09T07:49:01.879Z,93476.47
2022-11-09T07:54:09.241Z,93473.34
2022-11-09T07:59:17.539Z,93473.62
2022-11-09T08:04:24.328Z,93482.38
2022-11-09T08:09:31.199Z,93486.63
2022-11-09T08:14:38.145Z,93482.77
2022-11-09T08:19:45.159Z,93481.53
2022-11-09T08:24:51.972Z,93480.06
2022-11-09T08:30:02.319Z,93483.62
2022-11-09T08:35:10.464Z,93483.87
2022-11-09T08:40:20.979Z,93488.85
2022-11-09T08:45:29.394Z,93493.65
2022-11-09T08:50:40.150Z,93486.34
2022-11-09T08:55:49.616Z,93484.56
2022-11-09T09:00:56.053Z,93477.54
2022-11-09T09:06:09.921Z,93488.84
2022-11-09T09:11:17.167Z,93482.80
2022-11-09T09:16:24.648Z,93487.30
2022-11-09T09:21:31.559Z,93489.19
2022-11-09T09:26:40.966Z,93507.37
2022-11-09T09:31:47.745Z,93504.91
2022-11-09T09:36:57.363Z,93505.91
2022-11-09T09:42:08.342Z,93506.82
2022-11-09T09:47:28.106Z,93503.88
2022-11-09T09:53:10.572Z,93496.80
2022-11-09T09:58:17.857Z,93504.99
2022-11-09T10:03:25.467Z,93497.13
2022-11-09T10:09:14.017Z,93495.78
2022-11-09T10:14:50.417Z,93504.05
2022-11-09T10:20:22.728Z,93497.44
2022-11-09T10:26:02.415Z,93500.98
2022-11-09T10:30:44.210Z,93499.13
2022-11-09T10:36:13.334Z,93493.57
2022-11-09T10:41:27.076Z,93487.75
2022-11-09T10:46:38.489Z,93491.22
2022-11-09T10:51:47.570Z,93485.13
2022-11-09T10:57:08.168Z,93480.90
2022-11-09T11:02:40.938Z,93490.95
2022-11-09T11:07:50.443Z,93488.58
2022-11-09T11:13:07.606Z,93477.67
2022-11-09T11:18:22.977Z,93474.52
2022-11-09T11:23:29.857Z,93476.80
2022-11-09T11:29:02.077Z,93477.17
2022-11-09T11:34:32.033Z,93476.50
2022-11-09T11:39:44.698Z,93462.41
2022-11-09T11:45:40.149Z,93456.55
2022-11-09T11:50:55.492Z,93459.69
2022-11-09T11:56:37.953Z,93455.13
2022-11-09T12:01:51.047Z,93456.33
2022-11-09T12:07:13.788Z,93451.56
2022-11-09T12:12:45.883Z,93446.81
2022-11-09T12:18:11.535Z,93454.00
2022-11-09T12:23:34.824Z,93438.55
2022-11-09T12:29:15.169Z,93442.33
2022-11-09T12:34:34.989Z,93445.58
2022-11-09T12:39:48.189Z,93439.93
2022-11-09T12:45:16.817Z,93435.94
2022-11-09T12:50:26.680Z,93440.95
2022-11-09T12:55:52.975Z,93444.69
2022-11-09T13:01:03.126Z,93447.72
2022-11-09T13:06:28.752Z,93448.15
2022-11-09T13:11:47.067Z,93453.32
2022-11-09T13:16:57.835Z,93456.08
2022-11-09T13:22:16.777Z,93462.81
2022-11-09T13:27:45.876Z,93462.37
2022-11-09T13:33:21.062Z,93465.77
2022-11-09T13:38:31.680Z,93469.45
2022-11-09T13:43:43.278Z,93475.09
2022-11-09T13:48:58.292Z,93479.59
2022-11-09T13:54:41.176Z,93486.73
2022-11-09T13:59:53.006Z,93491.50
2022-11-09T14:05:02.161Z,93480.69
2022-11-09T14:10:19.558Z,93490.16
2022-11-09T14:15:50.478Z,93504.07
2022-11-09T14:21:28.436Z,93502.18
2022-11-09T14:26:35.595Z,93505.39
2022-11-09T14:31:46.041Z,93504.63
2022-11-09T14:36:52.662Z,93509.12
2022-11-09T14:42:00.403Z,93508.86
2022-11-09T14:47:25.534Z,93505.72
2022-11-09T14:52:36.220Z,93509.17
2022-11-09T14:57:43.578Z,93516.58
2022-11-09T15:02:53.453Z,93518.73
2022-11-09T15:08:01.478Z,93526.14
2022-11-09T15:13:08.446Z,93517.42
2022-11-09T15:18:34.192Z,93517.19
2022-11-09T15:23:47.099Z,93529.08
2022-11-09T15:28:55.677Z,93531.20
2022-11-09T15:34:02.985Z,93531.48
2022-11-09T15:39:19.897Z,93535.96
2022-11-09T15:44:26.644Z,93539.60
2022-11-09T15:49:34.385Z,93550.45
2022-11-09T15:54:46.421Z,93551.51
2022-11-09T15:59:52.703Z,93553.89
2022-11-09T16:05:00.817Z,93545.42
2022-11-09T16:10:09.060Z,93555.44
2022-11-09T16:15:16.118Z,93559.09
2022-11-09T16:20:23.788Z,93557.14
2022-11-09T16:25:30.606Z,93552.89
2022-11-09T16:30:44.052Z,93562.69
2022-11-09T16:35:48.990Z,93558.70
2022-11-09T16:40:55.801Z,93566.11
2022-11-09T16:46:02.660Z,93563.92
2022-11-09T16:51:09.627Z,93562.61
2022-11-09T16:56:17.612Z,93576.54
2022-11-09T17:01:24.492Z,93581.55
2022-11-09T17:06:33.290Z,93586.09
2022-11-09T17:11:40.642Z,93585.75
2022-11-09T17:16:49.381Z,93584.34
2022-11-09T17:21:57.714Z,93592.04
2022-11-09T17:27:04.400Z,93601.28
2022-11-09T17:32:12.126Z,93606.55
2022-11-09T17:37:19.227Z,93599.02
2022-11-09T17:42:26.200Z,93599.95
2022-11-09T17:47:34.901Z,93604.44
2022-11-09T17:52:41.774Z,93604.69
2022-11-09T17:57:49.151Z,93609.34
2022-11-09T18:02:58.616Z,93616.05
2022-11-09T18:08:05.819Z,93615.57
2022-11-09T18:13:12.895Z,93615.59
2022-11-09T18:18:23.300Z,93619.21
2022-11-09T18:23:30.145Z,93618.37
2022-11-09T18:28:38.135Z,93615.52
2022-11-09T18:33:45.025Z,93610.00
2022-11-09T18:38:55.419Z,93610.41
2022-11-09T18:44:02.846Z,93617.48
2022-11-09T18:49:14.226Z,93624.16
2022-11-09T18:54:19.666Z,93621.02
2022-11-09T18:59:26.586Z,93625.73
2022-11-09T19:04:35.245Z,93623.84
2022-11-09T19:09:42.627Z,93630.42
2022-11-09T19:14:49.549Z,93638.72
2022-11-09T19:19:58.075Z,93645.77
2022-11-09T19:25:05.322Z,93644.91
2022-11-09T19:30:12.729Z,93641.75
2022-11-09T19:35:25.630Z,93644.77
2022-11-09T19:40:29.835Z,93641.56
2022-11-09T19:45:41.782Z,93649.53
2022-11-09T19:50:53.102Z,93649.52
2022-11-09T19:56:06.181Z,93651.21
2022-11-09T20:01:14.130Z,93659.17
2022-11-09T20:06:22.367Z,93657.55
2022-11-09T20:11:48.209Z,93651.02
2022-11-09T20:16:55.553Z,93651.64
2022-11-09T20:22:02.700Z,93645.59
2022-11-09T20:27:09.720Z,93635.45
2022-11-09T20:32:21.372Z,93642.99
2022-11-09T20:37:25.045Z,93643.61
2022-11-09T20:42:31.831Z,93635.70
2022-11-09T20:48:03.418Z,93646.20
2022-11-09T20:52:47.081Z,93643.10
2022-11-09T20:57:53.854Z,93652.63
2022-11-09T21:03:01.587Z,93654.09
2022-11-09T21:08:08.832Z,93647.36
2022-11-09T21:13:15.626Z,93651.02
2022-11-09T21:18:23.158Z,93651.30
2022-11-09T21:23:48.189Z,93646.11
2022-11-09T21:29:12.749Z,93651.05
2022-11-09T21:34:19.672Z,93658.87
2022-11-09T21:39:26.420Z,93660.13
2022-11-09T21:44:35.273Z,93656.50
2022-11-09T21:49:42.132Z,93662.63
2022-11-09T21:54:48.713Z,93663.44
2022-11-09T21:59:55.545Z,93656.69
2022-11-09T22:05:02.579Z,93661.97
2022-11-09T22:10:11.107Z,93654.30
2022-11-09T22:15:35.782Z,93652.98
2022-11-09T22:20:46.767Z,93651.41
2022-11-09T22:25:53.540Z,93647.14
2022-11-09T22:42:13.544Z,93653.05
2022-11-09T22:47:19.907Z,93654.48
2022-11-09T22:52:26.593Z,93652.62
2022-11-09T22:57:33.378Z,93659.78
2022-11-09T23:02:40.129Z,93662.98
2022-11-09T23:07:46.828Z,93659.55
2022-11-09T23:12:53.548Z,93665.33
2022-11-09T23:18:18.890Z,93672.36
2022-11-09T23:23:25.567Z,93670.97
2022-11-09T23:28:33.540Z,93668.45
2022-11-09T23:33:41.334Z,93675.20
2022-11-09T23:38:48.444Z,93677.16
2022-11-09T23:43:58.190Z,93674.25
2022-11-09T23:49:06.256Z,93677.39
2022-11-09T23:54:15.959Z,93674.44
2022-11-09T23:59:23.478Z,93678.77
